Time;durP1;ratioP1;P1;durP2;ratioP2;P2;SDS_P1;SDS_P2;PMS_P1;PMS_P2;Temp;Humidity;BMP_temperature;BMP_pressure;BME280_temperature;BME280_humidity;BME280_pressure;Samples;Min_cycle;Max_cycle;Signal;HPM_P1;HPM_P2
2022/03/03 00:04:22;;;;;;;21.00;13.37;;;;;;;;;;10340552;28;20216;-73
2022/03/03 00:09:23;;;;;;;24.70;13.40;;;;;;;;;;10341745;28;20204;-73
2022/03/03 00:14:24;;;;;;;27.87;14.43;;;;;;;;;;10342454;28;20220;-73
2022/03/03 00:19:25;;;;;;;18.93;12.67;;;;;;;;;;10339820;28;20196;-74
2022/03/03 00:24:26;;;;;;;20.43;12.73;;;;;;;;;;10341250;28;20319;-74
2022/03/03 00:29:27;;;;;;;23.53;14.30;;;;;;;;;;10340431;28;20200;-74
2022/03/03 00:34:28;;;;;;;23.97;14.77;;;;;;;;;;10340269;28;20224;-75
2022/03/03 00:39:29;;;;;;;20.67;13.17;;;;;;;;;;10336855;28;20268;-75
2022/03/03 00:44:30;;;;;;;20.00;12.37;;;;;;;;;;10335958;28;20204;-75
2022/03/03 00:49:31;;;;;;;25.03;12.83;;;;;;;;;;10333153;28;20923;-75
2022/03/03 00:54:32;;;;;;;20.63;13.10;;;;;;;;;;10366269;28;20223;-75
2022/03/03 00:59:33;;;;;;;23.03;13.17;;;;;;;;;;10336173;28;20207;-75
2022/03/03 01:04:35;;;;;;;24.17;14.20;;;;;;;;;;10344507;28;20704;-75
2022/03/03 01:09:36;;;;;;;19.97;13.03;;;;;;;;;;10339214;28;20314;-74
2022/03/03 01:14:37;;;;;;;24.23;13.70;;;;;;;;;;10334362;28;20458;-75
2022/03/03 01:19:38;;;;;;;20.77;13.00;;;;;;;;;;10370700;28;20201;-73
2022/03/03 01:24:39;;;;;;;21.37;13.43;;;;;;;;;;10339253;28;20211;-74
2022/03/03 01:29:40;;;;;;;24.70;12.50;;;;;;;;;;10336719;28;20738;-74
2022/03/03 01:34:41;;;;;;;22.83;12.87;;;;;;;;;;10337954;28;20224;-75
2022/03/03 01:39:42;;;;;;;18.70;12.07;;;;;;;;;;10338735;28;20224;-75
2022/03/03 01:44:44;;;;;;;19.50;12.03;;;;;;;;;;10336010;28;20203;-74
2022/03/03 01:49:45;;;;;;;20.90;12.83;;;;;;;;;;10331669;28;20209;-75
2022/03/03 01:54:47;;;;;;;20.87;12.50;;;;;;;;;;10335436;28;20209;-75
2022/03/03 01:59:48;;;;;;;21.67;12.60;;;;;;;;;;10332356;28;20204;-75
2022/03/03 02:04:49;;;;;;;18.73;11.83;;;;;;;;;;10333653;28;20212;-75
2022/03/03 02:09:50;;;;;;;22.10;12.17;;;;;;;;;;10363801;28;20203;-75
2022/03/03 02:14:51;;;;;;;19.30;12.47;;;;;;;;;;10338671;28;20291;-74
2022/03/03 02:19:52;;;;;;;22.40;12.03;;;;;;;;;;10337749;28;20200;-76
2022/03/03 02:24:53;;;;;;;24.23;12.90;;;;;;;;;;10331005;28;20196;-73
2022/03/03 02:29:55;;;;;;;20.90;11.93;;;;;;;;;;10335819;28;20959;-72
2022/03/03 02:34:56;;;;;;;20.10;11.83;;;;;;;;;;10338247;28;20213;-73
2022/03/03 02:39:57;;;;;;;18.67;12.10;;;;;;;;;;10337775;28;21040;-74
2022/03/03 02:44:58;;;;;;;19.87;12.40;;;;;;;;;;10340178;28;20206;-73
2022/03/03 02:49:59;;;;;;;25.33;13.30;;;;;;;;;;10345463;28;20658;-73
2022/03/03 02:55:00;;;;;;;21.13;12.27;;;;;;;;;;10342116;28;20337;-74
2022/03/03 03:00:01;;;;;;;18.70;11.87;;;;;;;;;;10374097;28;20211;-74
2022/03/03 03:05:02;;;;;;;22.20;11.90;;;;;;;;;;10343009;28;20877;-75
2022/03/03 03:10:04;;;;;;;22.40;12.53;;;;;;;;;;10343768;28;20215;-75
2022/03/03 03:15:06;;;;;;;18.53;11.30;;;;;;;;;;10342453;28;20295;-73
2022/03/03 03:20:07;;;;;;;20.33;12.03;;;;;;;;;;10347449;28;20288;-74
2022/03/03 03:25:12;;;;;;;21.80;12.27;;;;;;;;;;10373665;28;20247;-73
2022/03/03 03:30:13;;;;;;;21.80;12.00;;;;;;;;;;10335688;28;20574;-75
2022/03/03 03:35:14;;;;;;;23.47;12.50;;;;;;;;;;10340051;28;20827;-76
2022/03/03 03:40:16;;;;;;;17.77;10.80;;;;;;;;;;10340847;28;20236;-75
2022/03/03 03:45:17;;;;;;;20.80;12.00;;;;;;;;;;10341389;28;20208;-73
2022/03/03 03:50:18;;;;;;;24.47;12.60;;;;;;;;;;10366778;28;20304;-73
2022/03/03 03:55:19;;;;;;;19.87;11.83;;;;;;;;;;10336236;28;20814;-74
2022/03/03 04:00:20;;;;;;;25.03;11.83;;;;;;;;;;10335317;28;20301;-75
2022/03/03 04:05:21;;;;;;;20.73;11.97;;;;;;;;;;10337795;28;20992;-75
2022/03/03 04:10:22;;;;;;;18.20;11.47;;;;;;;;;;10335138;28;20262;-75
2022/03/03 04:15:24;;;;;;;19.33;11.63;;;;;;;;;;10331561;28;20720;-75
2022/03/03 04:20:27;;;;;;;21.87;11.90;;;;;;;;;;10334666;28;20220;-74
2022/03/03 04:25:28;;;;;;;20.47;11.80;;;;;;;;;;10365596;28;20209;-75
2022/03/03 04:30:30;;;;;;;21.20;12.77;;;;;;;;;;10335724;28;20716;-74
2022/03/03 04:35:31;;;;;;;19.63;12.10;;;;;;;;;;10333181;28;20197;-74
2022/03/03 04:40:32;;;;;;;24.20;13.93;;;;;;;;;;10337797;28;20228;-74
2022/03/03 04:45:33;;;;;;;26.30;14.20;;;;;;;;;;10330198;28;20200;-75
2022/03/03 04:50:34;;;;;;;26.73;14.20;;;;;;;;;;10332132;28;20335;-74
2022/03/03 04:55:35;;;;;;;25.67;13.67;;;;;;;;;;10332368;28;20196;-75
2022/03/03 05:00:36;;;;;;;26.07;14.17;;;;;;;;;;10358549;28;20698;-74
2022/03/03 05:05:37;;;;;;;22.20;13.47;;;;;;;;;;10328139;28;20239;-74
2022/03/03 05:10:38;;;;;;;23.33;12.63;;;;;;;;;;10337184;28;20262;-74
2022/03/03 05:15:39;;;;;;;28.90;14.57;;;;;;;;;;10336728;28;20209;-74
2022/03/03 05:20:40;;;;;;;25.83;13.73;;;;;;;;;;10332325;28;20193;-73
2022/03/03 05:25:41;;;;;;;23.83;12.93;;;;;;;;;;10338057;28;20209;-74
2022/03/03 05:30:43;;;;;;;26.67;13.93;;;;;;;;;;10337277;28;20216;-73
2022/03/03 05:35:45;;;;;;;27.17;14.73;;;;;;;;;;10331843;28;20209;-76
2022/03/03 05:40:46;;;;;;;23.47;14.20;;;;;;;;;;10358415;28;20229;-74
2022/03/03 05:45:47;;;;;;;25.03;14.10;;;;;;;;;;10331512;28;20678;-74
2022/03/03 05:50:48;;;;;;;26.27;13.57;;;;;;;;;;10331311;28;20208;-74
2022/03/03 05:55:51;;;;;;;27.97;13.80;;;;;;;;;;10331038;28;21678;-74
2022/03/03 06:00:57;;;;;;;27.83;13.73;;;;;;;;;;10330488;28;20775;-74
2022/03/03 06:06:05;;;;;;;22.67;13.83;;;;;;;;;;10327965;28;20204;-74
2022/03/03 06:11:11;;;;;;;29.97;15.23;;;;;;;;;;10327355;28;20239;-75
2022/03/03 06:16:16;;;;;;;30.73;16.00;;;;;;;;;;10326680;28;20200;-74
2022/03/03 06:21:18;;;;;;;29.87;15.87;;;;;;;;;;10329326;28;20207;-74
2022/03/03 06:26:19;;;;;;;29.23;14.97;;;;;;;;;;10333412;28;20204;-74
2022/03/03 06:31:22;;;;;;;25.27;15.60;;;;;;;;;;10330149;28;20311;-75
2022/03/03 06:36:23;;;;;;;32.87;16.33;;;;;;;;;;10333150;28;20222;-74
2022/03/03 06:41:25;;;;;;;34.23;16.90;;;;;;;;;;10330866;28;20240;-74
2022/03/03 06:46:26;;;;;;;27.43;16.47;;;;;;;;;;10332033;28;20205;-75
2022/03/03 06:51:29;;;;;;;32.10;16.90;;;;;;;;;;10332765;28;20217;-75
2022/03/03 06:56:31;;;;;;;41.73;16.47;;;;;;;;;;10333627;28;20292;-74
2022/03/03 07:01:32;;;;;;;36.60;19.33;;;;;;;;;;10331114;28;20215;-74
2022/03/03 07:06:33;;;;;;;37.40;18.50;;;;;;;;;;10334732;28;20576;-75
2022/03/03 07:11:35;;;;;;;40.07;18.93;;;;;;;;;;10331023;28;20704;-75
2022/03/03 07:16:47;;;;;;;40.57;20.23;;;;;;;;;;10366416;28;20196;-74
2022/03/03 07:22:07;;;;;;;40.43;19.53;;;;;;;;;;10331807;28;20207;-75
2022/03/03 07:27:13;;;;;;;33.13;19.20;;;;;;;;;;10334176;28;20218;-74
2022/03/03 07:32:17;;;;;;;36.80;18.90;;;;;;;;;;10335665;28;20345;-75
2022/03/03 07:37:19;;;;;;;42.53;20.80;;;;;;;;;;10336625;28;20255;-75
2022/03/03 07:42:20;;;;;;;40.00;19.70;;;;;;;;;;10338397;28;20204;-75
2022/03/03 07:47:22;;;;;;;42.77;20.57;;;;;;;;;;10344306;28;20212;-75
2022/03/03 07:52:24;;;;;;;43.60;21.50;;;;;;;;;;10342776;28;20770;-75
2022/03/03 07:57:28;;;;;;;38.03;21.80;;;;;;;;;;10338834;28;20205;-75
2022/03/03 08:02:30;;;;;;;40.23;22.03;;;;;;;;;;10335945;28;20221;-75
2022/03/03 08:07:34;;;;;;;41.23;22.60;;;;;;;;;;10330331;28;20587;-75
2022/03/03 08:12:36;;;;;;;42.20;23.00;;;;;;;;;;10342412;28;20850;-76
2022/03/03 08:17:37;;;;;;;47.57;22.17;;;;;;;;;;10332217;28;20193;-74
2022/03/03 08:22:38;;;;;;;46.05;24.45;;;;;;;;;;10338169;28;20603;-77
2022/03/03 08:27:40;;;;;;;46.22;23.67;;;;;;;;;;10348923;28;20200;-77
2022/03/03 08:32:48;;;;;;;44.97;23.88;;;;;;;;;;10362970;28;20216;-76
2022/03/03 08:37:53;;;;;;;41.80;23.47;;;;;;;;;;10365777;28;20220;-75
2022/03/03 08:42:58;;;;;;;46.10;24.53;;;;;;;;;;10334098;28;20208;-76
2022/03/03 08:48:06;;;;;;;46.15;25.42;;;;;;;;;;10335349;28;22441;-76
2022/03/03 08:53:08;;;;;;;43.53;22.92;;;;;;;;;;10338876;28;20256;-76
2022/03/03 08:58:10;;;;;;;43.80;23.95;;;;;;;;;;10368997;28;20214;-76
2022/03/03 09:03:11;;;;;;;40.25;22.75;;;;;;;;;;10333845;28;20819;-77
2022/03/03 09:08:13;;;;;;;40.85;23.25;;;;;;;;;;10341532;28;20684;-78
2022/03/03 09:13:14;;;;;;;43.63;24.45;;;;;;;;;;10354114;28;20303;-78
2022/03/03 09:18:16;;;;;;;42.17;24.65;;;;;;;;;;10345025;28;20215;-78
2022/03/03 09:23:17;;;;;;;45.67;24.65;;;;;;;;;;10340772;28;20219;-79
2022/03/03 09:28:18;;;;;;;44.88;24.42;;;;;;;;;;10342464;28;20231;-79
2022/03/03 09:33:19;;;;;;;42.45;23.27;;;;;;;;;;10339546;28;20283;-78
2022/03/03 09:38:20;;;;;;;43.40;24.92;;;;;;;;;;10341309;28;20228;-78
2022/03/03 09:43:22;;;;;;;44.50;24.60;;;;;;;;;;10340172;28;20216;-78
2022/03/03 09:48:23;;;;;;;43.70;24.00;;;;;;;;;;10340638;28;20204;-79
2022/03/03 09:53:24;;;;;;;43.83;25.55;;;;;;;;;;10338266;28;20217;-79
2022/03/03 09:58:25;;;;;;;41.65;23.90;;;;;;;;;;10339140;28;20212;-78
2022/03/03 10:03:33;;;;;;;40.50;23.40;;;;;;;;;;10344106;28;20714;-78
2022/03/03 10:08:36;;;;;;;44.22;24.70;;;;;;;;;;10341965;28;20200;-78
2022/03/03 10:13:44;;;;;;;40.63;23.70;;;;;;;;;;10342507;28;20219;-77
2022/03/03 10:18:50;;;;;;;41.47;23.10;;;;;;;;;;10342749;28;20254;-77
2022/03/03 10:23:51;;;;;;;37.75;20.20;;;;;;;;;;10343398;28;20209;-77
2022/03/03 10:28:52;;;;;;;34.63;21.15;;;;;;;;;;10335405;28;20593;-76
2022/03/03 10:33:53;;;;;;;31.80;20.23;;;;;;;;;;10341422;28;20240;-78
2022/03/03 10:38:54;;;;;;;34.65;20.83;;;;;;;;;;10334202;28;20339;-76
2022/03/03 10:43:55;;;;;;;33.15;20.27;;;;;;;;;;10339707;28;20242;-78
2022/03/03 10:48:56;;;;;;;29.73;19.75;;;;;;;;;;10340129;28;20232;-75
2022/03/03 10:53:58;;;;;;;35.55;20.58;;;;;;;;;;10335293;28;20230;-77
2022/03/03 10:58:59;;;;;;;32.10;20.38;;;;;;;;;;10340957;28;20270;-78
2022/03/03 11:04:00;;;;;;;35.95;22.60;;;;;;;;;;10342024;28;20270;-78
2022/03/03 11:09:01;;;;;;;30.50;20.98;;;;;;;;;;10345709;28;20244;-77
2022/03/03 11:14:03;;;;;;;33.88;23.05;;;;;;;;;;10345117;28;20239;-76
2022/03/03 11:19:04;;;;;;;35.78;22.35;;;;;;;;;;10351185;28;20243;-79
2022/03/03 11:24:08;;;;;;;33.00;19.58;;;;;;;;;;10343882;28;20205;-77
2022/03/03 11:29:10;;;;;;;32.25;20.33;;;;;;;;;;10376191;28;20276;-77
2022/03/03 11:34:41;;;;;;;31.48;20.48;;;;;;;;;;10345000;28;20224;-77
2022/03/03 11:39:45;;;;;;;28.98;18.73;;;;;;;;;;10338822;28;20268;-77
2022/03/03 11:44:47;;;;;;;30.75;18.25;;;;;;;;;;10339909;28;20227;-77
2022/03/03 11:50:14;;;;;;;34.47;19.70;;;;;;;;;;10347518;28;20220;-79
2022/03/03 11:55:34;;;;;;;37.10;19.70;;;;;;;;;;10340018;28;20225;-82
2022/03/03 12:00:38;;;;;;;35.60;20.13;;;;;;;;;;10343880;28;20225;-78
2022/03/03 12:05:43;;;;;;;37.20;20.80;;;;;;;;;;10342758;28;20209;-77
2022/03/03 12:11:05;;;;;;;34.28;19.42;;;;;;;;;;10347183;28;20236;-79
2022/03/03 12:16:13;;;;;;;32.53;18.90;;;;;;;;;;10338238;28;20204;-77
2022/03/03 12:21:23;;;;;;;37.53;20.63;;;;;;;;;;10344702;28;20208;-77
2022/03/03 12:26:24;;;;;;;36.13;19.42;;;;;;;;;;10341829;28;20204;-77
2022/03/03 12:31:29;;;;;;;35.40;19.10;;;;;;;;;;10371491;28;20216;-76
2022/03/03 12:36:31;;;;;;;29.20;16.95;;;;;;;;;;10344662;28;20208;-76
2022/03/03 12:41:34;;;;;;;32.63;17.80;;;;;;;;;;10340973;28;20248;-81
2022/03/03 12:46:35;;;;;;;28.48;16.75;;;;;;;;;;10340830;28;21085;-76
2022/03/03 12:51:42;;;;;;;30.77;18.15;;;;;;;;;;10342572;28;20220;-76
2022/03/03 12:56:43;;;;;;;33.00;18.60;;;;;;;;;;10338371;28;20196;-78
2022/03/03 13:01:45;;;;;;;30.48;17.58;;;;;;;;;;10347665;28;20227;-76
2022/03/03 13:06:46;;;;;;;28.88;16.17;;;;;;;;;;10341474;28;20256;-79
2022/03/03 13:11:54;;;;;;;35.90;18.13;;;;;;;;;;10342360;28;20695;-80
2022/03/03 13:16:55;;;;;;;36.85;17.27;;;;;;;;;;10341362;28;20243;-77
2022/03/03 13:21:56;;;;;;;29.98;16.85;;;;;;;;;;10343766;28;20201;-78
2022/03/03 13:26:57;;;;;;;35.08;18.25;;;;;;;;;;10340727;28;20227;-78
2022/03/03 13:31:59;;;;;;;28.83;15.93;;;;;;;;;;10347053;28;20227;-78
2022/03/03 13:37:01;;;;;;;29.20;16.13;;;;;;;;;;10340652;28;20211;-80
2022/03/03 13:42:03;;;;;;;31.88;16.50;;;;;;;;;;10346588;28;20204;-79
2022/03/03 13:47:05;;;;;;;32.63;16.90;;;;;;;;;;10348165;28;20196;-77
2022/03/03 13:52:08;;;;;;;31.33;16.15;;;;;;;;;;10340142;28;20224;-78
2022/03/03 13:57:29;;;;;;;27.92;16.45;;;;;;;;;;10335704;28;20197;-77
2022/03/03 14:02:31;;;;;;;30.25;15.77;;;;;;;;;;10339694;28;20228;-78
2022/03/03 14:07:34;;;;;;;32.35;15.98;;;;;;;;;;10340469;28;20629;-78
2022/03/03 14:12:35;;;;;;;30.35;15.85;;;;;;;;;;10341089;28;20223;-78
2022/03/03 14:17:37;;;;;;;29.92;16.50;;;;;;;;;;10373209;28;20200;-78
2022/03/03 14:22:38;;;;;;;33.05;16.40;;;;;;;;;;10335967;28;20300;-73
2022/03/03 14:27:39;;;;;;;34.42;17.92;;;;;;;;;;10336327;28;20670;-78
2022/03/03 14:32:40;;;;;;;35.78;17.65;;;;;;;;;;10368313;28;20220;-77
2022/03/03 14:37:41;;;;;;;31.40;15.57;;;;;;;;;;10339946;28;20220;-74
2022/03/03 14:42:42;;;;;;;33.85;17.10;;;;;;;;;;10343405;28;20223;-78
2022/03/03 14:47:43;;;;;;;39.75;16.83;;;;;;;;;;10343444;28;20208;-75
2022/03/03 14:52:44;;;;;;;35.47;16.42;;;;;;;;;;10342737;28;20212;-77
2022/03/03 14:57:46;;;;;;;31.08;15.45;;;;;;;;;;10375356;28;20262;-76
2022/03/03 15:02:48;;;;;;;37.92;16.77;;;;;;;;;;10341742;28;20259;-77
2022/03/03 15:07:50;;;;;;;35.90;16.25;;;;;;;;;;10342709;28;22283;-77
2022/03/03 15:12:52;;;;;;;34.05;15.27;;;;;;;;;;10339053;28;20212;-78
2022/03/03 15:17:53;;;;;;;39.85;17.02;;;;;;;;;;10375924;28;20262;-78
2022/03/03 15:22:54;;;;;;;39.47;17.95;;;;;;;;;;10380302;28;20231;-78
2022/03/03 15:27:56;;;;;;;34.10;17.02;;;;;;;;;;10348237;28;20208;-78
2022/03/03 15:32:57;;;;;;;39.72;17.48;;;;;;;;;;10374629;28;20226;-78
2022/03/03 15:37:58;;;;;;;35.92;16.05;;;;;;;;;;10377383;28;20319;-77
2022/03/03 15:42:59;;;;;;;36.10;16.00;;;;;;;;;;10338240;28;20216;-78
2022/03/03 15:48:00;;;;;;;36.85;15.75;;;;;;;;;;10332634;28;21018;-78
2022/03/03 15:53:01;;;;;;;34.63;14.38;;;;;;;;;;10344309;28;20224;-76
2022/03/03 15:58:02;;;;;;;36.47;15.20;;;;;;;;;;10381905;28;20204;-78
2022/03/03 16:03:03;;;;;;;33.08;15.25;;;;;;;;;;10375592;28;20720;-76
2022/03/03 16:08:04;;;;;;;32.80;15.82;;;;;;;;;;10376610;28;20197;-77
2022/03/03 16:13:08;;;;;;;35.70;15.60;;;;;;;;;;10371061;28;20211;-76
2022/03/03 16:18:10;;;;;;;32.30;13.85;;;;;;;;;;10345951;28;20201;-76
2022/03/03 16:23:13;;;;;;;36.67;15.27;;;;;;;;;;10373746;28;20216;-78
2022/03/03 16:28:15;;;;;;;38.42;14.57;;;;;;;;;;10338657;28;20236;-77
2022/03/03 16:33:17;;;;;;;35.90;15.50;;;;;;;;;;10336556;28;20303;-77
2022/03/03 16:38:18;;;;;;;33.33;14.23;;;;;;;;;;10342122;28;20229;-76
2022/03/03 16:43:19;;;;;;;33.45;14.05;;;;;;;;;;10374540;28;20307;-76
2022/03/03 16:48:20;;;;;;;33.72;13.95;;;;;;;;;;10339929;28;20664;-78
2022/03/03 16:53:21;;;;;;;36.97;14.50;;;;;;;;;;10371538;28;20216;-78
2022/03/03 16:58:22;;;;;;;28.63;13.50;;;;;;;;;;10343006;28;20204;-77
2022/03/03 17:03:24;;;;;;;39.78;14.30;;;;;;;;;;10341800;28;20762;-74
2022/03/03 17:08:25;;;;;;;41.30;14.30;;;;;;;;;;10337659;28;20203;-75
2022/03/03 17:13:27;;;;;;;42.33;14.95;;;;;;;;;;10336181;28;20212;-74
2022/03/03 17:18:28;;;;;;;35.90;13.95;;;;;;;;;;10340775;28;23620;-78
2022/03/03 17:23:29;;;;;;;36.97;14.68;;;;;;;;;;10340927;28;20215;-78
2022/03/03 17:28:31;;;;;;;36.53;14.05;;;;;;;;;;10376246;28;21002;-76
2022/03/03 17:33:32;;;;;;;42.65;14.70;;;;;;;;;;10339815;28;20252;-76
2022/03/03 17:38:33;;;;;;;35.65;14.25;;;;;;;;;;10341653;28;20233;-79
2022/03/03 17:43:35;;;;;;;39.17;13.70;;;;;;;;;;10338542;28;20287;-77
2022/03/03 17:48:36;;;;;;;38.53;14.55;;;;;;;;;;10338643;28;20532;-78
2022/03/03 17:53:37;;;;;;;34.45;14.18;;;;;;;;;;10341080;28;20842;-78
2022/03/03 17:58:38;;;;;;;38.03;14.40;;;;;;;;;;10336396;28;20203;-75
2022/03/03 18:03:39;;;;;;;32.42;13.00;;;;;;;;;;10336672;28;20226;-76
2022/03/03 18:08:40;;;;;;;33.35;13.57;;;;;;;;;;10340491;28;20216;-77
2022/03/03 18:13:41;;;;;;;37.60;14.88;;;;;;;;;;10371236;28;20208;-77
2022/03/03 18:18:42;;;;;;;35.33;13.65;;;;;;;;;;10374170;28;20202;-77
2022/03/03 18:23:44;;;;;;;34.42;12.75;;;;;;;;;;10340176;28;20204;-77
2022/03/03 18:28:45;;;;;;;35.55;14.07;;;;;;;;;;10340117;28;20203;-73
2022/03/03 18:33:46;;;;;;;31.30;14.32;;;;;;;;;;10336508;28;20784;-77
2022/03/03 18:38:47;;;;;;;32.35;13.60;;;;;;;;;;10341256;28;20770;-78
2022/03/03 18:43:48;;;;;;;32.47;13.35;;;;;;;;;;10337601;28;20211;-78
2022/03/03 18:48:49;;;;;;;39.22;14.07;;;;;;;;;;10337560;28;20367;-78
2022/03/03 18:53:50;;;;;;;27.80;12.43;;;;;;;;;;10337527;28;20890;-79
2022/03/03 18:58:51;;;;;;;31.55;14.30;;;;;;;;;;10335357;28;20200;-79
2022/03/03 19:03:53;;;;;;;37.17;16.10;;;;;;;;;;10336286;28;20300;-79
2022/03/03 19:08:54;;;;;;;42.90;15.85;;;;;;;;;;10339071;28;20193;-77
2022/03/03 19:13:55;;;;;;;35.33;14.50;;;;;;;;;;10337355;28;20601;-77
2022/03/03 19:18:57;;;;;;;28.58;12.73;;;;;;;;;;10337993;28;20208;-77
2022/03/03 19:23:58;;;;;;;26.95;11.05;;;;;;;;;;10343328;28;20288;-79
2022/03/03 19:28:59;;;;;;;21.25;8.30;;;;;;;;;;10349579;28;20216;-79
2022/03/03 19:34:06;;;;;;;20.90;10.02;;;;;;;;;;10341527;28;20282;-78
2022/03/03 19:39:07;;;;;;;18.52;8.80;;;;;;;;;;10341212;28;20316;-79
2022/03/03 19:44:08;;;;;;;21.42;8.90;;;;;;;;;;10346419;28;20204;-78
2022/03/03 19:49:09;;;;;;;17.33;9.02;;;;;;;;;;10345580;28;20575;-77
2022/03/03 19:54:11;;;;;;;18.88;9.25;;;;;;;;;;10343830;28;20221;-78
2022/03/03 19:59:12;;;;;;;17.42;8.80;;;;;;;;;;10378576;28;20203;-77
2022/03/03 20:04:13;;;;;;;20.10;9.27;;;;;;;;;;10372053;28;20217;-79
2022/03/03 20:14:34;;;;;;;20.13;10.18;;;;;;;;;;10348073;28;20686;-76
2022/03/03 20:19:35;;;;;;;15.85;8.68;;;;;;;;;;10362616;28;20210;-76
2022/03/03 20:24:36;;;;;;;19.10;9.25;;;;;;;;;;10340475;28;20224;-79
2022/03/03 20:29:37;;;;;;;18.40;9.60;;;;;;;;;;10346005;28;20687;-78
2022/03/03 20:34:39;;;;;;;22.63;9.23;;;;;;;;;;10342359;28;20754;-75
2022/03/03 20:39:40;;;;;;;19.23;10.70;;;;;;;;;;10341194;28;20314;-76
2022/03/03 20:44:41;;;;;;;19.95;10.43;;;;;;;;;;10370401;28;20586;-75
2022/03/03 20:49:42;;;;;;;20.90;11.55;;;;;;;;;;10343074;28;20239;-76
2022/03/03 20:54:43;;;;;;;24.30;12.15;;;;;;;;;;10344254;28;20208;-78
2022/03/03 20:59:44;;;;;;;21.00;11.35;;;;;;;;;;10344306;28;20622;-78
2022/03/03 21:04:46;;;;;;;17.30;10.15;;;;;;;;;;10375077;28;20216;-79
2022/03/03 21:09:47;;;;;;;27.35;14.27;;;;;;;;;;10342891;28;20313;-80
2022/03/03 21:14:48;;;;;;;35.95;18.00;;;;;;;;;;10337703;28;20216;-78
2022/03/03 21:19:49;;;;;;;40.15;20.77;;;;;;;;;;10342299;28;20208;-80
2022/03/03 21:24:50;;;;;;;35.80;18.00;;;;;;;;;;10369860;28;20204;-79
2022/03/03 21:29:51;;;;;;;38.67;18.50;;;;;;;;;;10343038;28;20214;-78
2022/03/03 21:34:52;;;;;;;33.92;15.65;;;;;;;;;;10337951;28;20226;-80
2022/03/03 21:39:53;;;;;;;21.02;11.50;;;;;;;;;;10356717;28;20735;-78
2022/03/03 21:44:54;;;;;;;18.50;10.25;;;;;;;;;;10340074;28;20267;-78
2022/03/03 21:49:55;;;;;;;17.02;9.05;;;;;;;;;;10337086;28;20311;-80
2022/03/03 21:54:56;;;;;;;15.77;9.35;;;;;;;;;;10339580;28;20223;-80
2022/03/03 21:59:58;;;;;;;25.45;12.90;;;;;;;;;;10342486;28;20200;-79
2022/03/03 22:04:59;;;;;;;22.95;12.13;;;;;;;;;;10369232;28;20216;-80
2022/03/03 22:10:00;;;;;;;24.77;13.50;;;;;;;;;;10340914;28;20196;-80
2022/03/03 22:15:03;;;;;;;21.80;12.25;;;;;;;;;;10338702;28;20268;-78
2022/03/03 22:20:04;;;;;;;19.27;10.68;;;;;;;;;;10342104;28;20205;-78
2022/03/03 22:25:06;;;;;;;17.45;9.18;;;;;;;;;;10342963;28;20249;-78
2022/03/03 22:30:07;;;;;;;16.40;8.98;;;;;;;;;;10340664;28;20287;-79
2022/03/03 22:35:11;;;;;;;15.35;8.82;;;;;;;;;;10339000;28;20654;-79
2022/03/03 22:40:12;;;;;;;15.60;9.00;;;;;;;;;;10345526;28;20239;-79
2022/03/03 22:45:13;;;;;;;14.40;7.72;;;;;;;;;;10339413;28;20205;-78
2022/03/03 22:55:34;;;;;;;9.82;7.03;;;;;;;;;;10340501;28;20243;-80
2022/03/03 23:00:38;;;;;;;15.10;7.75;;;;;;;;;;10348527;28;20355;-78
2022/03/03 23:05:39;;;;;;;17.30;6.70;;;;;;;;;;10345814;28;20220;-81
2022/03/03 23:10:40;;;;;;;10.80;7.20;;;;;;;;;;10343219;28;20196;-80
2022/03/03 23:15:42;;;;;;;11.27;6.57;;;;;;;;;;10348174;28;20294;-78
2022/03/03 23:20:44;;;;;;;10.60;6.53;;;;;;;;;;10382276;28;20204;-80
2022/03/03 23:25:45;;;;;;;8.68;6.18;;;;;;;;;;10347226;28;20697;-78
2022/03/03 23:30:46;;;;;;;10.30;7.15;;;;;;;;;;10343512;28;20280;-78
2022/03/03 23:35:48;;;;;;;13.00;7.38;;;;;;;;;;10343725;28;20221;-79
2022/03/03 23:40:49;;;;;;;10.30;6.82;;;;;;;;;;10347137;28;20232;-79
2022/03/03 23:45:50;;;;;;;10.63;6.70;;;;;;;;;;10341703;28;20211;-78
2022/03/03 23:50:51;;;;;;;9.90;6.57;;;;;;;;;;10378306;28;20314;-79
2022/03/03 23:55:53;;;;;;;10.75;6.45;;;;;;;;;;10373362;28;20208;-78
